Impacts TAF Board INFO
FOR SITUATIONAL AWARENESS. NOT TO BE USED FOR FLIGHT PLANNING PURPOSES.
IDs:

KLGA - New York/La Guardia, NY, US

Issued at 0942 UTC 23 May 2018
Updated at 1055 UTC 23 May 2018
Potential Impact None Slight Moderate High
Time1051Z 23/11Z 23/12Z 23/13Z 23/14Z 23/15Z 23/16Z 23/17Z 23/18Z 23/19Z 23/20Z 23/21Z 23/22Z 23/23Z>>
Type OBS PRVL PRVL PRVL PRVL PRVL PRVL PRVL PRVL PRVL PRVL PRVL PRVL PRVL
VIS 8 >6 >6 >6 >6 >6 >6 >6 >6 >6 >6 >6 >6 >6
CIG 130 10 10 -- -- -- -- -- -- -- -- -- -- --
Cover BKN BKN BKN SCT SCT SCT SCT SCT SCT SCT SCT SCT SCT FEW
FltCat VFR MVFR MVFR VFR VFR VFR VFR VFR VFR VFR VFR VFR VFR VFR
WX -- -- -- -- -- -- -- -- -- -- -- -- -- --
WDir VRB 290 290 310 310 320 320 320 320 320 320 320 320 300
WSpd 0 5 5 7 7 10 10 10 10 10 10 10 10 8
WGst -- -- -- -- -- -- -- -- -- -- -- -- -- --

Raw TAF
KLGA 230942Z 2310/2412 VRB03KT P6SM VCSH OVC008
  TEMPO 2310/2311 5SM BR
  FM231100 29005KT P6SM BKN010
  FM231300 31007KT P6SM SCT025 SCT060
  FM231500 32010KT P6SM SCT060
  FM232300 30008KT P6SM FEW250


Raw METAR
KLGA 231051Z 00000KT 8SM FEW065 SCT100 BKN130 BKN250 17/15 A2990 RMK AO2 SLP125 T01670150 $
KLGA 230951Z 00000KT 3SM BR FEW007 SCT012 BKN110 BKN160 16/14 A2989 RMK AO2 SFC VIS 5 RAE0857 SLP120 P0000 T01610144 $
KLGA 230947Z 00000KT 3SM BR BKN007 BKN012 BKN110 16/14 A2989 RMK AO2 SFC VIS 5 RAE0857 P0000 $
KLGA 230928Z 31003KT 3SM BR OVC006 16/14 A2990 RMK AO2 SFC VIS 5 LTG DSNT S AND SW RAE0857 P0000 T01610144 $
KLGA 230851Z 00000KT 3SM -RA BR SCT006 OVC012 16/14 A2990 RMK AO2 SFC VIS 4 LTG DSNT SE SLP124 P0005 60021 T01560144 55010 $
KLGA 230847Z 00000KT 3SM -RA BR SCT006 OVC011 16/14 A2990 RMK AO2 SFC VIS 4 LTG DSNT SE CIG 007 R22 SW P0005 $
KLGA 230843Z 27003KT 2SM -RA BR SCT006 OVC011 16/14 A2991 RMK AO2 SFC VIS 4 LTG DSNT SE CIG 007 R22 SW P0005 T01560144 $
KLGA 230751Z 17006KT 2SM -RA BR BKN008 BKN038 OVC100 16/14 A2988 RMK AO2 SFC VIS 3 LTG DSNT SW SLP119 P0015 T01560144 $
KLGA 230746Z 17004KT 2SM -RA BR BKN009 BKN038 OVC110 16/14 A2989 RMK AO2 SFC VIS 3 LTG DSNT SW P0014 $

METAR Board
Radar Display
Forecast Discussion

FOR SITUATIONAL AWARENESS. NOT TO BE USED FOR FLIGHT PLANNING PURPOSES.